createdAt,value
2023-07-09T00:01:47.340Z,21.22
2023-07-09T00:04:15.458Z,21.25
2023-07-09T00:06:42.599Z,21.25
2023-07-09T00:09:14.550Z,21.24
2023-07-09T00:11:41.886Z,21.29
2023-07-09T00:14:10.118Z,21.22
2023-07-09T00:16:37.162Z,21.00
2023-07-09T00:19:04.040Z,21.08
2023-07-09T00:21:32.001Z,21.15
2023-07-09T00:23:58.565Z,21.11
2023-07-09T00:26:25.321Z,20.90
2023-07-09T00:28:51.921Z,20.83
2023-07-09T00:31:18.588Z,20.92
2023-07-09T00:33:45.948Z,20.78
2023-07-09T00:36:16.198Z,20.72
2023-07-09T00:38:44.186Z,20.72
2023-07-09T00:41:15.865Z,20.78
2023-07-09T00:43:42.424Z,20.70
2023-07-09T00:46:37.113Z,20.71
2023-07-09T00:49:08.140Z,20.68
2023-07-09T00:51:39.400Z,20.79
2023-07-09T00:54:13.556Z,20.72
2023-07-09T00:56:43.464Z,20.60
2023-07-09T00:59:16.142Z,20.50
2023-07-09T01:01:42.856Z,20.50
2023-07-09T01:04:11.759Z,20.50
2023-07-09T01:06:43.359Z,20.72
2023-07-09T01:09:09.961Z,20.63
2023-07-09T01:11:36.741Z,20.62
2023-07-09T01:14:07.103Z,20.69
2023-07-09T01:16:37.876Z,20.58
2023-07-09T01:19:05.182Z,20.41
2023-07-09T01:21:35.297Z,20.46
2023-07-09T01:24:13.530Z,20.35
2023-07-09T01:26:40.107Z,20.26
2023-07-09T01:29:08.351Z,20.29
2023-07-09T01:31:35.072Z,20.17
2023-07-09T01:34:03.120Z,20.11
2023-07-09T01:36:29.800Z,19.93
2023-07-09T01:38:58.218Z,20.08
2023-07-09T01:41:24.814Z,19.95
2023-07-09T01:43:52.041Z,19.85
2023-07-09T01:46:18.636Z,19.87
2023-07-09T01:48:45.197Z,19.82
2023-07-09T01:51:16.279Z,19.92
2023-07-09T01:53:44.597Z,19.72
2023-07-09T01:56:12.568Z,19.86
2023-07-09T01:58:39.316Z,19.64
2023-07-09T02:01:05.942Z,19.75
2023-07-09T02:03:33.852Z,19.58
2023-07-09T02:06:00.707Z,19.62
2023-07-09T02:08:27.523Z,19.73
2023-07-09T02:10:54.949Z,19.52
2023-07-09T02:13:22.877Z,19.66
2023-07-09T02:15:49.955Z,19.54
2023-07-09T02:18:16.558Z,19.59
2023-07-09T02:20:43.130Z,19.55
2023-07-09T02:23:09.898Z,19.31
2023-07-09T02:25:36.477Z,19.62
2023-07-09T02:28:03.098Z,19.55
2023-07-09T02:30:31.450Z,19.74
2023-07-09T02:32:58.042Z,19.46
2023-07-09T02:35:24.782Z,19.50
2023-07-09T02:37:51.395Z,19.36
2023-07-09T02:40:18.059Z,19.47
2023-07-09T02:42:44.667Z,19.51
2023-07-09T02:45:11.943Z,19.46
2023-07-09T02:47:40.329Z,19.39
2023-07-09T02:50:07.987Z,19.56
2023-07-09T02:52:34.600Z,19.54
2023-07-09T02:55:01.178Z,19.67
2023-07-09T02:57:27.774Z,19.34
2023-07-09T02:59:54.409Z,19.20
2023-07-09T03:02:21.388Z,19.08
2023-07-09T03:04:49.478Z,19.05
2023-07-09T03:07:16.133Z,18.93
2023-07-09T03:09:42.820Z,19.10
2023-07-09T03:12:10.029Z,19.11
2023-07-09T03:14:36.688Z,19.23
2023-07-09T03:17:03.773Z,19.18
2023-07-09T03:19:30.481Z,19.18
2023-07-09T03:21:58.433Z,19.18
2023-07-09T03:24:25.018Z,19.24
2023-07-09T03:26:51.645Z,19.21
2023-07-09T03:29:18.244Z,19.13
2023-07-09T03:31:44.886Z,19.05
2023-07-09T03:34:11.891Z,19.01
2023-07-09T03:36:38.594Z,19.09
2023-07-09T03:39:06.956Z,19.08
2023-07-09T03:41:33.943Z,19.07
2023-07-09T03:44:00.949Z,19.10
2023-07-09T03:46:27.598Z,19.12
2023-07-09T03:48:54.280Z,19.14
2023-07-09T03:51:21.022Z,19.46
2023-07-09T03:53:47.597Z,19.56
2023-07-09T03:56:15.532Z,19.73
2023-07-09T03:58:42.108Z,19.75
2023-07-09T04:01:08.714Z,19.75
2023-07-09T04:03:35.397Z,19.46
2023-07-09T04:06:02.316Z,19.16
2023-07-09T04:08:29.294Z,19.18
2023-07-09T04:10:59.795Z,19.25
2023-07-09T04:13:27.929Z,19.29
2023-07-09T04:15:54.597Z,19.43
2023-07-09T04:18:21.263Z,19.45
2023-07-09T04:20:49.295Z,19.63
2023-07-09T04:23:15.953Z,19.49
2023-07-09T04:25:42.583Z,19.53
2023-07-09T04:28:09.461Z,19.50
2023-07-09T04:30:37.472Z,19.53
2023-07-09T04:33:04.266Z,19.67
2023-07-09T04:35:30.877Z,19.78
2023-07-09T04:37:57.433Z,19.86
2023-07-09T04:40:23.996Z,20.13
2023-07-09T04:42:50.553Z,20.00
2023-07-09T04:45:17.244Z,20.14
2023-07-09T04:47:45.211Z,20.19
2023-07-09T04:50:12.528Z,20.14
2023-07-09T04:52:39.175Z,20.32
2023-07-09T04:55:06.714Z,20.35
2023-07-09T04:57:33.269Z,20.39
2023-07-09T04:59:59.894Z,20.45
2023-07-09T05:02:26.501Z,20.58
2023-07-09T05:04:54.541Z,20.76
2023-07-09T05:07:21.117Z,20.87
2023-07-09T05:09:47.780Z,20.74
2023-07-09T05:12:14.728Z,20.90
2023-07-09T05:14:41.361Z,21.05
2023-07-09T05:17:08.826Z,21.19
2023-07-09T05:19:36.216Z,21.01
2023-07-09T05:22:04.751Z,21.22
2023-07-09T05:24:31.405Z,21.21
2023-07-09T05:26:57.985Z,21.40
2023-07-09T05:29:26.247Z,21.45
2023-07-09T05:31:52.932Z,21.49
2023-07-09T05:34:19.581Z,21.41
2023-07-09T05:36:46.170Z,21.52
2023-07-09T05:39:16.966Z,21.52
2023-07-09T05:41:43.617Z,21.46
2023-07-09T05:44:10.224Z,21.70
2023-07-09T05:46:37.969Z,21.81
2023-07-09T05:49:05.321Z,21.80
2023-07-09T05:51:31.973Z,21.98
2023-07-09T05:53:58.739Z,21.95
2023-07-09T05:56:26.697Z,22.15
2023-07-09T05:58:53.303Z,22.25
2023-07-09T06:01:19.890Z,22.40
2023-07-09T06:03:46.973Z,22.34
2023-07-09T06:06:13.689Z,22.35
2023-07-09T06:08:40.508Z,22.56
2023-07-09T06:11:07.088Z,22.64
2023-07-09T06:13:35.112Z,22.80
2023-07-09T06:16:02.669Z,22.98
2023-07-09T06:18:29.806Z,23.07
2023-07-09T06:20:58.792Z,22.91
2023-07-09T06:23:25.479Z,23.05
2023-07-09T06:25:52.635Z,23.19
2023-07-09T06:28:21.428Z,23.52
2023-07-09T06:30:49.832Z,23.53
2023-07-09T06:33:17.940Z,23.96
2023-07-09T06:35:47.634Z,24.08
2023-07-09T06:38:14.207Z,24.30
2023-07-09T06:40:40.790Z,24.38
2023-07-09T06:43:07.487Z,24.06
2023-07-09T06:45:38.383Z,24.28
2023-07-09T06:48:06.995Z,24.35
2023-07-09T06:50:34.717Z,24.50
2023-07-09T06:53:01.290Z,24.64
2023-07-09T06:55:27.979Z,24.69
2023-07-09T06:57:54.565Z,24.48
2023-07-09T07:00:21.268Z,24.46
2023-07-09T07:02:48.007Z,24.62
2023-07-09T07:05:16.157Z,24.75
2023-07-09T07:07:42.738Z,24.82
2023-07-09T07:10:10.091Z,25.16
2023-07-09T07:12:43.722Z,25.23
2023-07-09T07:15:11.876Z,25.15
2023-07-09T07:17:38.461Z,25.20
2023-07-09T07:20:06.109Z,25.21
2023-07-09T07:22:34.163Z,25.36
2023-07-09T07:25:00.878Z,25.41
2023-07-09T07:27:27.493Z,25.66
2023-07-09T07:29:54.048Z,25.69
2023-07-09T07:32:20.660Z,25.53
2023-07-09T07:34:47.730Z,25.63
2023-07-09T07:37:14.672Z,25.88
2023-07-09T07:39:43.064Z,25.90
2023-07-09T07:42:09.710Z,25.93
2023-07-09T07:44:36.467Z,26.11
2023-07-09T07:47:03.283Z,26.36
2023-07-09T07:49:29.858Z,26.17
2023-07-09T07:51:56.448Z,26.22
2023-07-09T07:54:23.173Z,26.45
2023-07-09T07:56:51.100Z,26.73
2023-07-09T07:59:18.431Z,26.85
2023-07-09T08:01:45.055Z,26.85
2023-07-09T08:04:11.760Z,26.67
2023-07-09T08:06:38.380Z,26.61
2023-07-09T08:09:04.959Z,26.67
2023-07-09T08:11:31.620Z,26.44
2023-07-09T08:13:59.612Z,26.81
2023-07-09T08:16:26.330Z,27.14
2023-07-09T08:18:53.261Z,27.32
2023-07-09T08:21:19.988Z,27.40
2023-07-09T08:23:47.068Z,27.37
2023-07-09T08:26:13.638Z,27.32
2023-07-09T08:28:40.285Z,27.53
2023-07-09T08:31:09.265Z,27.58
2023-07-09T08:33:35.940Z,27.61
2023-07-09T08:36:02.851Z,27.76
2023-07-09T08:38:29.444Z,28.06
2023-07-09T08:40:59.655Z,28.06
2023-07-09T08:43:35.302Z,28.29
2023-07-09T08:46:08.635Z,28.56
2023-07-09T08:48:39.789Z,28.47
2023-07-09T08:51:14.397Z,28.77
2023-07-09T08:53:49.630Z,28.84
2023-07-09T08:56:18.099Z,28.52
2023-07-09T08:58:46.785Z,28.94
2023-07-09T09:01:17.948Z,29.00
2023-07-09T09:03:48.601Z,28.91
2023-07-09T09:06:17.284Z,28.94
2023-07-09T09:08:55.398Z,29.01
2023-07-09T09:11:27.376Z,28.95
2023-07-09T09:13:59.301Z,29.25
2023-07-09T09:16:40.387Z,28.73
2023-07-09T09:19:19.411Z,29.03
2023-07-09T09:21:46.377Z,29.18
2023-07-09T09:24:27.403Z,29.41
2023-07-09T09:26:57.579Z,29.25
2023-07-09T09:29:25.333Z,29.55
2023-07-09T09:31:55.792Z,29.81
2023-07-09T09:34:25.341Z,29.55
2023-07-09T09:36:51.923Z,29.86
2023-07-09T09:39:18.976Z,30.05
2023-07-09T09:41:46.535Z,30.08
2023-07-09T09:44:19.938Z,30.02
2023-07-09T09:46:48.405Z,30.32
2023-07-09T09:49:16.402Z,30.52
2023-07-09T09:51:46.417Z,30.57
2023-07-09T09:54:19.237Z,30.63
2023-07-09T09:56:45.960Z,30.83
2023-07-09T09:59:20.075Z,30.84
2023-07-09T10:01:46.930Z,30.87
2023-07-09T10:04:19.354Z,30.83
2023-07-09T10:06:49.776Z,30.99
2023-07-09T10:09:30.103Z,31.11
2023-07-09T10:12:04.572Z,31.15
2023-07-09T10:14:38.890Z,31.30
2023-07-09T10:17:16.045Z,31.34
2023-07-09T10:19:58.027Z,31.42
2023-07-09T10:22:41.569Z,31.55
2023-07-09T10:25:21.305Z,31.49
2023-07-09T10:28:05.033Z,31.46
2023-07-09T10:30:42.733Z,31.64
2023-07-09T10:33:11.797Z,31.87
2023-07-09T10:35:43.567Z,31.80
2023-07-09T10:38:30.312Z,31.64
2023-07-09T10:41:06.464Z,31.70
2023-07-09T10:43:39.576Z,31.79
2023-07-09T10:46:12.769Z,32.06
2023-07-09T10:48:43.501Z,32.16
2023-07-09T10:51:18.239Z,31.80
2023-07-09T10:53:49.289Z,31.94
2023-07-09T10:56:18.154Z,31.92
2023-07-09T10:58:51.214Z,32.20
2023-07-09T11:01:22.441Z,32.04
2023-07-09T11:03:51.735Z,32.38
2023-07-09T11:06:25.198Z,32.13
2023-07-09T11:08:56.534Z,32.24
2023-07-09T11:11:41.412Z,32.19
2023-07-09T11:14:19.082Z,32.39
2023-07-09T11:16:45.829Z,32.46
2023-07-09T11:19:17.650Z,32.75
2023-07-09T11:21:59.332Z,32.91
2023-07-09T11:24:32.377Z,32.92
2023-07-09T11:26:58.961Z,32.68
2023-07-09T11:29:25.499Z,32.86
2023-07-09T11:31:52.142Z,32.28
2023-07-09T11:34:21.105Z,32.84
2023-07-09T11:36:51.457Z,33.06
2023-07-09T11:39:21.139Z,32.92
2023-07-09T11:41:47.822Z,33.05
2023-07-09T11:44:18.022Z,33.26
2023-07-09T11:46:55.069Z,33.62
2023-07-09T11:49:26.338Z,33.17
2023-07-09T11:51:58.374Z,33.43
2023-07-09T11:54:24.972Z,33.32
2023-07-09T11:56:56.583Z,33.69
2023-07-09T11:59:23.440Z,33.40
2023-07-09T12:01:51.874Z,32.77
2023-07-09T12:04:19.855Z,33.27
2023-07-09T12:06:47.592Z,33.63
2023-07-09T12:09:18.433Z,33.70
2023-07-09T12:11:46.671Z,33.82
2023-07-09T12:14:16.277Z,33.92
2023-07-09T12:16:45.202Z,33.88
2023-07-09T12:19:13.470Z,34.01
2023-07-09T12:21:43.618Z,34.38
2023-07-09T12:24:20.224Z,33.76
2023-07-09T12:26:49.268Z,34.39
2023-07-09T12:29:16.108Z,34.26
2023-07-09T12:31:42.710Z,34.35
2023-07-09T12:34:13.726Z,34.58
2023-07-09T12:36:45.307Z,34.71
2023-07-09T12:39:13.278Z,34.64
2023-07-09T12:41:43.023Z,34.72
2023-07-09T12:44:17.616Z,35.31
2023-07-09T12:46:45.886Z,34.63
2023-07-09T12:49:22.366Z,34.66
2023-07-09T12:51:49.036Z,34.24
2023-07-09T12:54:17.490Z,34.68
2023-07-09T12:56:45.446Z,35.20
2023-07-09T12:59:20.756Z,35.35
2023-07-09T13:01:55.752Z,35.14
2023-07-09T13:04:28.279Z,35.14
2023-07-09T13:06:54.856Z,35.17
2023-07-09T13:09:22.741Z,35.77
2023-07-09T13:11:51.697Z,35.52
2023-07-09T13:14:21.751Z,35.28
2023-07-09T13:16:49.079Z,35.51
2023-07-09T13:19:15.684Z,35.70
2023-07-09T13:21:42.823Z,35.62
2023-07-09T13:24:20.329Z,35.60
2023-07-09T13:26:46.900Z,35.69
2023-07-09T13:29:17.060Z,35.83
2023-07-09T13:31:44.625Z,35.89
2023-07-09T13:34:19.727Z,36.26
2023-07-09T13:36:46.619Z,36.04
2023-07-09T13:39:14.337Z,35.58
2023-07-09T13:41:43.231Z,35.39
2023-07-09T13:44:13.260Z,34.78
2023-07-09T13:46:41.264Z,35.32
2023-07-09T13:49:10.499Z,35.60
2023-07-09T13:51:37.372Z,35.62
2023-07-09T13:54:14.277Z,35.72
2023-07-09T13:56:41.189Z,34.78
2023-07-09T13:59:14.127Z,34.80
2023-07-09T14:01:42.476Z,34.63
2023-07-09T14:04:10.460Z,34.91
2023-07-09T14:06:37.086Z,34.62
2023-07-09T14:09:03.735Z,34.73
2023-07-09T14:11:30.993Z,34.67
2023-07-09T14:13:57.607Z,34.68
2023-07-09T14:16:24.225Z,34.50
2023-07-09T14:18:52.215Z,34.52
2023-07-09T14:21:24.486Z,34.31
2023-07-09T14:23:51.111Z,34.45
2023-07-09T14:26:17.745Z,34.14
2023-07-09T14:28:44.338Z,34.07
2023-07-09T14:31:20.742Z,34.02
2023-07-09T14:33:47.344Z,34.05
2023-07-09T14:36:15.563Z,34.00
2023-07-09T14:38:42.124Z,34.05
2023-07-09T14:41:21.984Z,34.24
2023-07-09T14:43:49.404Z,33.77
2023-07-09T14:46:16.043Z,33.58
2023-07-09T14:48:42.654Z,33.71
2023-07-09T14:51:15.959Z,33.58
2023-07-09T14:53:42.952Z,33.06
2023-07-09T14:56:11.187Z,32.91
2023-07-09T14:58:39.047Z,32.88
2023-07-09T15:01:05.853Z,32.76
2023-07-09T15:03:32.609Z,32.71
2023-07-09T15:05:59.191Z,32.54
2023-07-09T15:08:27.428Z,32.53
2023-07-09T15:10:55.793Z,32.38
2023-07-09T15:13:29.869Z,32.66
2023-07-09T15:15:56.533Z,32.62
2023-07-09T15:18:23.113Z,32.55
2023-07-09T15:20:53.866Z,32.35
2023-07-09T15:23:20.759Z,32.12
2023-07-09T15:25:49.574Z,32.10
2023-07-09T15:28:16.255Z,32.03
2023-07-09T15:30:42.912Z,31.89
2023-07-09T15:33:15.178Z,31.84
2023-07-09T15:35:42.303Z,31.75
2023-07-09T15:38:25.949Z,31.93
2023-07-09T15:40:53.988Z,32.05
2023-07-09T15:43:20.689Z,32.11
2023-07-09T15:45:49.672Z,32.06
2023-07-09T15:48:24.474Z,31.70
2023-07-09T15:50:51.180Z,31.32
2023-07-09T15:53:18.445Z,31.28
2023-07-09T15:55:45.116Z,31.09
2023-07-09T15:58:19.560Z,31.10
2023-07-09T16:00:46.187Z,30.98
2023-07-09T16:03:21.185Z,30.93
2023-07-09T16:05:48.374Z,30.87
2023-07-09T16:08:14.956Z,30.79
2023-07-09T16:10:42.053Z,30.76
2023-07-09T16:13:18.959Z,30.54
2023-07-09T16:15:47.742Z,30.61
2023-07-09T16:18:14.780Z,30.76
2023-07-09T16:20:41.352Z,30.62
2023-07-09T16:23:15.199Z,30.68
2023-07-09T16:25:41.843Z,30.31
2023-07-09T16:28:12.000Z,30.18
2023-07-09T16:30:38.646Z,29.94
2023-07-09T16:33:06.573Z,30.10
2023-07-09T16:35:33.207Z,30.30
2023-07-09T16:38:00.182Z,30.12
2023-07-09T16:40:28.572Z,30.04
2023-07-09T16:42:56.524Z,29.78
2023-07-09T16:45:25.100Z,29.51
2023-07-09T16:47:51.769Z,29.70
2023-07-09T16:50:22.057Z,29.95
2023-07-09T16:52:50.388Z,29.31
2023-07-09T16:55:19.600Z,28.05
2023-07-09T16:57:50.142Z,26.84
2023-07-09T17:00:36.283Z,26.00
2023-07-09T17:03:06.025Z,25.35
2023-07-09T17:05:34.196Z,24.40
2023-07-09T17:08:00.762Z,24.50
2023-07-09T17:10:27.381Z,24.24
2023-07-09T17:12:56.816Z,24.38
2023-07-09T17:15:26.341Z,24.18
2023-07-09T17:17:54.396Z,24.05
2023-07-09T17:20:22.478Z,23.77
2023-07-09T17:22:52.676Z,23.78
2023-07-09T17:25:28.199Z,23.53
2023-07-09T17:27:55.569Z,23.65
2023-07-09T17:30:22.132Z,23.69
2023-07-09T17:32:48.893Z,23.53
2023-07-09T17:35:16.231Z,23.48
2023-07-09T17:37:49.258Z,23.22
2023-07-09T17:42:53.070Z,23.06
2023-07-09T17:45:19.985Z,23.38
2023-07-09T17:47:46.612Z,23.60
2023-07-09T17:50:15.135Z,23.50
2023-07-09T17:52:43.779Z,23.26
2023-07-09T17:55:12.601Z,23.04
2023-07-09T17:57:42.388Z,22.65
2023-07-09T18:00:19.540Z,22.30
2023-07-09T18:02:51.375Z,21.10
2023-07-09T18:05:23.455Z,20.68
2023-07-09T18:07:50.049Z,20.50
2023-07-09T18:10:16.812Z,20.41
2023-07-09T18:12:44.809Z,20.25
2023-07-09T18:15:19.047Z,20.69
2023-07-09T18:17:45.759Z,20.73
2023-07-09T18:20:16.276Z,20.10
2023-07-09T18:22:42.905Z,20.00
2023-07-09T18:25:09.773Z,20.01
2023-07-09T18:27:39.257Z,19.67
2023-07-09T18:30:15.666Z,19.91
2023-07-09T18:32:46.536Z,20.12
2023-07-09T18:35:19.380Z,20.55
2023-07-09T18:37:46.041Z,20.68
2023-07-09T18:40:13.722Z,20.71
2023-07-09T18:42:40.316Z,20.41
2023-07-09T18:45:13.559Z,20.32
2023-07-09T18:47:40.183Z,20.31
2023-07-09T18:50:09.116Z,20.27
2023-07-09T18:52:35.701Z,20.25
2023-07-09T18:55:02.297Z,20.10
2023-07-09T18:57:28.860Z,20.10
2023-07-09T18:59:55.420Z,19.92
2023-07-09T19:02:25.275Z,19.80
2023-07-09T19:04:52.530Z,20.03
2023-07-09T19:07:21.583Z,20.42
2023-07-09T19:09:49.071Z,20.22
2023-07-09T19:12:15.869Z,20.28
2023-07-09T19:14:43.005Z,20.08
2023-07-09T19:17:13.416Z,20.09
2023-07-09T19:19:41.899Z,19.68
2023-07-09T19:22:09.791Z,19.87
2023-07-09T19:24:36.383Z,19.67
2023-07-09T19:27:03.198Z,20.04
2023-07-09T19:29:29.765Z,20.29
2023-07-09T19:31:59.850Z,20.42
2023-07-09T19:34:28.711Z,19.73
2023-07-09T19:36:58.398Z,19.64
2023-07-09T19:39:27.222Z,19.66
2023-07-09T19:41:55.296Z,19.74
2023-07-09T19:44:23.019Z,19.75
2023-07-09T19:46:49.767Z,19.89
2023-07-09T19:49:16.431Z,19.85
2023-07-09T19:51:43.007Z,19.79
2023-07-09T19:54:15.926Z,19.79
2023-07-09T19:56:43.575Z,19.65
2023-07-09T19:59:10.522Z,19.53
2023-07-09T20:01:37.239Z,19.36
2023-07-09T20:04:04.170Z,19.34
2023-07-09T20:06:31.325Z,19.38
2023-07-09T20:08:58.025Z,19.31
2023-07-09T20:11:26.472Z,19.47
2023-07-09T20:13:54.295Z,19.45
2023-07-09T20:16:24.397Z,19.32
2023-07-09T20:18:52.211Z,19.29
2023-07-09T20:21:20.511Z,19.34
2023-07-09T20:23:47.089Z,19.18
2023-07-09T20:26:13.728Z,19.34
2023-07-09T20:28:41.724Z,19.44
2023-07-09T20:31:15.915Z,19.65
2023-07-09T20:33:42.479Z,19.59
2023-07-09T20:36:09.139Z,19.86
2023-07-09T20:38:36.693Z,19.76
2023-07-09T20:41:04.260Z,19.70
2023-07-09T20:43:37.025Z,19.61
2023-07-09T20:46:05.161Z,19.72
2023-07-09T20:48:31.998Z,19.64
2023-07-09T20:50:58.584Z,19.64
2023-07-09T20:53:25.716Z,19.53
2023-07-09T20:55:54.803Z,19.58
2023-07-09T20:58:22.420Z,19.68
2023-07-09T21:00:50.278Z,19.52
2023-07-09T21:03:20.606Z,19.73
2023-07-09T21:05:48.946Z,19.51
2023-07-09T21:08:20.370Z,19.57
2023-07-09T21:10:48.289Z,19.59
2023-07-09T21:13:17.484Z,19.82
2023-07-09T21:15:44.491Z,19.47
2023-07-09T21:18:15.946Z,19.78
2023-07-09T21:20:44.822Z,19.92
2023-07-09T21:23:14.273Z,19.85
2023-07-09T21:25:40.845Z,19.71
2023-07-09T21:28:07.409Z,19.77
2023-07-09T21:30:34.058Z,19.95
2023-07-09T21:33:00.724Z,20.06
2023-07-09T21:35:27.785Z,19.91
2023-07-09T21:37:57.761Z,19.89
2023-07-09T21:40:30.545Z,20.19
2023-07-09T21:42:58.998Z,20.24
2023-07-09T21:45:30.573Z,20.37
2023-07-09T21:47:58.782Z,20.44
2023-07-09T21:50:25.391Z,20.28
2023-07-09T21:52:51.964Z,20.19
2023-07-09T21:55:21.740Z,20.20
2023-07-09T21:57:49.071Z,20.11
2023-07-09T22:00:17.826Z,20.28
2023-07-09T22:02:46.467Z,20.38
2023-07-09T22:05:15.465Z,20.42
2023-07-09T22:07:41.923Z,20.52
2023-07-09T22:10:10.786Z,20.31
2023-07-09T22:12:39.019Z,20.09
2023-07-09T22:15:14.724Z,19.88
2023-07-09T22:17:41.335Z,19.33
2023-07-09T22:20:08.833Z,19.21
2023-07-09T22:22:35.500Z,19.34
2023-07-09T22:25:02.107Z,19.38
2023-07-09T22:27:28.722Z,19.25
2023-07-09T22:29:56.643Z,19.38
2023-07-09T22:32:25.867Z,19.20
2023-07-09T22:35:00.033Z,19.04
2023-07-09T22:37:26.654Z,18.87
2023-07-09T22:39:53.238Z,18.94
2023-07-09T22:42:19.804Z,19.04
2023-07-09T22:44:46.549Z,19.16
2023-07-09T22:47:17.919Z,19.01
2023-07-09T22:49:44.587Z,18.77
2023-07-09T22:52:11.715Z,18.71
2023-07-09T22:54:38.482Z,18.69
2023-07-09T22:57:05.968Z,18.78
2023-07-09T22:59:32.706Z,18.81
2023-07-09T23:01:59.527Z,18.81
2023-07-09T23:04:27.671Z,18.79
2023-07-09T23:06:54.382Z,18.95
2023-07-09T23:09:20.950Z,19.15
2023-07-09T23:11:47.685Z,19.16
2023-07-09T23:14:18.370Z,19.12
2023-07-09T23:16:45.577Z,19.00
2023-07-09T23:19:18.323Z,19.41
2023-07-09T23:21:47.027Z,19.53
2023-07-09T23:24:13.589Z,19.52
2023-07-09T23:26:43.958Z,19.63
2023-07-09T23:29:10.997Z,19.51
2023-07-09T23:31:37.639Z,19.65
2023-07-09T23:34:09.434Z,19.56
2023-07-09T23:36:36.129Z,19.50
2023-07-09T23:39:04.343Z,19.62
2023-07-09T23:41:34.112Z,19.68
2023-07-09T23:44:03.380Z,19.53
2023-07-09T23:46:31.535Z,19.63
2023-07-09T23:49:08.531Z,19.76
2023-07-09T23:51:36.685Z,19.59
2023-07-09T23:54:05.467Z,19.71
2023-07-09T23:56:34.616Z,19.51
2023-07-09T23:59:02.639Z,19.28
